Jacksonville, FL

3:57 PM EST on March 01, 2015 (GMT -0500)
Jacksonville International | Change Station
CLOSE
Current Station
Airport
Location: Jacksonville,
Elevation: 30 ft
Nearby Weather Stations
Active Advisory: Coastal Hazard Statement

Elev 30 ft 30.49 °N, 81.69 °W | Updated 1 hour ago

Overcast
Overcast
62 °F
Feels Like 62 °F
N
5
Wind Variable Wind from East

Today
High -- | Low -- °F
--% Chance of Precip.
Yesterday
High -- | Low -- °F
Precip. -- in
6:53 AM 6:25 PM
Waxing Gibbous, 87% visible
Pressure 30.35 in
Visibility 10.0 miles
Clouds Overcast 1100 ft
Dew Point 58 °F
Humidity 86%
Rainfall 0.00 in
Snow Depth Not available.
UV 2 out of 12
Pollen 5.70 out of 12
Air Quality Not available.
Flu Activity Not available.
METAR KJAX 011956Z 08004KT 10SM OVC011 17/14 A3035 RMK AO2 SLP278 T01670144

More Conditions Fewer Conditions

Pressure 30.35 in
Visibility 10.0 miles
Clouds Overcast 1100 ft
Dew Point 58 °F
Humidity 86%
Rainfall 0.00 in
Snow Depth Not available.
UV 2 out of 12
Pollen 5.70 out of 12
Air Quality Not available.
Flu Activity Not available.
METAR KJAX 011956Z 08004KT 10SM OVC011 17/14 A3035 RMK AO2 SLP278 T01670144

More Conditions Fewer Conditions

10-Day Weather Forecast

Almanac

Astronomy

Mar. 01, 2015 Rise Set
Actual Time
Civil Twilight
Nautical Twilight
Astronomical Twilight
Moon
Length of Visible Light
Length of Day
Tomorrow will be .
, % of the Moon is Illuminated

Today's Extremes

State Highs State Lows

Community

WunderPhotos

Upload Photos

1,801,550 photos uploaded!

WunderBlogs® & News

Nearby

Air Quality

  Air Quality AQ Index Pollutant
Not available.

Snow Depth

Station Depth Elevation

Earthquake Activity

City Distance Mag. Time & Date
Minimum magnitude displayed is 2.5.

Coastal Water Temperatures

Place Temperature

Nearby Weather Stations

Coastal Hazard Statement
Statement as of 1:56 PM EST on March 01, 2015

... High rip current risk remains in effect through late tonight...

* timing... through late tonight.

* Impacts... strong onshore winds and rough seas will produce
hazardous rip currents.

Precautionary/preparedness actions...

There is a high risk of rip currents.

Rip currents will be life threatening... and swimming is not
advised.

Rip currents are powerful channels of water flowing quickly away
from shore... which occur most often at low spots or breaks in The
Sandbar and in the vicinity of structures such as groins...
jetties and piers. Heed the advice of lifeguards and the beach
patrol. Pay attention to flags and posted signs.

If you become caught in a rip current... do not panic. Remain calm
and begin to swim parallel to shore. Once you are away from the
force of the rip current... begin to swim back to the beach. Do
not attempt to swim directly against a rip current. Even a strong
swimmer can become exhausted quickly.